Time;durP1;ratioP1;P1;durP2;ratioP2;P2;SDS_P1;SDS_P2;PMS_P1;PMS_P2;Temp;Humidity;BMP_temperature;BMP_pressure;BME280_temperature;BME280_humidity;BME280_pressure;Samples;Min_cycle;Max_cycle;Signal;HPM_P1;HPM_P2
2023/08/03 00:00:22;;;;;;;1.20;1.10;;;22.60;60.40;;;;;;4997682;28;20213;-57
2023/08/03 00:02:49;;;;;;;1.25;1.15;;;22.60;60.50;;;;;;4997042;28;20185;-57
2023/08/03 00:05:17;;;;;;;1.63;1.00;;;22.60;60.60;;;;;;5014613;28;20688;-56
2023/08/03 00:07:44;;;;;;;1.30;1.20;;;22.60;60.60;;;;;;4997541;28;20231;-56
2023/08/03 00:10:11;;;;;;;1.00;1.00;;;22.60;60.60;;;;;;5014422;28;20243;-57
2023/08/03 00:12:38;;;;;;;1.45;1.30;;;22.50;60.50;;;;;;5014706;28;20620;-56
2023/08/03 00:15:05;;;;;;;1.83;1.13;;;22.50;60.50;;;;;;4996773;28;20203;-56
2023/08/03 00:17:34;;;;;;;1.20;1.10;;;22.50;60.60;;;;;;5014700;28;20195;-56
2023/08/03 00:20:03;;;;;;;1.60;1.08;;;22.50;61.30;;;;;;5014250;28;20287;-57
2023/08/03 00:22:30;;;;;;;1.10;1.00;;;22.50;60.60;;;;;;5014045;28;20568;-56
2023/08/03 00:24:58;;;;;;;1.83;1.10;;;22.50;60.60;;;;;;5014103;28;20192;-56
2023/08/03 00:27:25;;;;;;;1.60;1.30;;;22.50;60.60;;;;;;4996432;28;20204;-56
2023/08/03 00:29:54;;;;;;;1.27;1.10;;;22.50;60.60;;;;;;4996223;28;20193;-56
2023/08/03 00:32:21;;;;;;;1.85;1.20;;;22.50;60.60;;;;;;4996298;28;20681;-57
2023/08/03 00:34:49;;;;;;;1.13;1.13;;;22.50;60.60;;;;;;4996274;28;20200;-57
2023/08/03 00:37:16;;;;;;;1.17;1.08;;;22.50;60.60;;;;;;4996282;28;20669;-56
2023/08/03 00:39:43;;;;;;;1.20;1.10;;;22.50;60.60;;;;;;4996168;28;20192;-56
2023/08/03 00:42:10;;;;;;;1.48;1.05;;;22.50;60.60;;;;;;4996105;28;20677;-56
2023/08/03 00:44:38;;;;;;;2.28;1.27;;;22.50;60.60;;;;;;5013491;28;20192;-57
2023/08/03 00:47:05;;;;;;;1.10;1.00;;;22.50;60.80;;;;;;4995980;28;20204;-56
2023/08/03 00:49:32;;;;;;;1.00;0.95;;;22.50;60.70;;;;;;5013707;28;20196;-56
2023/08/03 00:52:00;;;;;;;1.40;1.27;;;22.50;60.80;;;;;;5013394;28;20295;-56
2023/08/03 00:54:28;;;;;;;1.08;1.08;;;22.40;60.80;;;;;;4995966;28;20204;-56
2023/08/03 00:56:55;;;;;;;1.25;1.00;;;22.40;60.80;;;;;;4995829;28;20192;-57
2023/08/03 00:59:22;;;;;;;1.20;1.10;;;22.40;60.80;;;;;;5012989;28;20196;-56
2023/08/03 01:01:48;;;;;;;1.77;1.10;;;22.40;61.00;;;;;;4995627;28;20216;-56
2023/08/03 01:04:15;;;;;;;1.52;1.25;;;22.40;61.00;;;;;;4996699;28;20295;-56
2023/08/03 01:06:42;;;;;;;1.90;1.23;;;22.40;61.00;;;;;;4995647;28;20283;-56
2023/08/03 01:09:10;;;;;;;1.60;1.33;;;22.40;61.00;;;;;;4995645;28;20235;-57
2023/08/03 01:11:37;;;;;;;1.17;1.15;;;22.40;61.00;;;;;;4995530;28;20311;-56
2023/08/03 01:14:04;;;;;;;2.65;1.20;;;22.40;61.00;;;;;;5013282;28;20195;-57
2023/08/03 01:16:31;;;;;;;2.10;1.25;;;22.40;61.00;;;;;;4995569;28;20228;-56
2023/08/03 01:18:58;;;;;;;2.08;1.27;;;22.30;60.90;;;;;;4995603;28;20203;-56
2023/08/03 01:21:25;;;;;;;1.30;1.20;;;22.30;60.90;;;;;;4995400;28;20204;-57
2023/08/03 01:23:53;;;;;;;2.15;1.33;;;22.30;61.00;;;;;;5013218;28;20276;-57
2023/08/03 01:26:20;;;;;;;1.73;1.20;;;22.30;60.90;;;;;;4995798;28;20199;-56
2023/08/03 01:28:47;;;;;;;1.80;1.17;;;22.30;60.90;;;;;;5013357;28;20193;-57
2023/08/03 01:31:16;;;;;;;1.60;1.10;;;22.30;61.00;;;;;;5013040;28;20209;-56
2023/08/03 01:33:43;;;;;;;1.40;0.95;;;22.30;61.00;;;;;;4995431;28;20617;-56
2023/08/03 01:36:09;;;;;;;1.38;1.10;;;22.30;61.10;;;;;;4995399;28;20188;-56
2023/08/03 01:38:36;;;;;;;1.30;1.20;;;22.30;61.10;;;;;;5013092;28;20192;-56
2023/08/03 01:41:06;;;;;;;1.83;1.05;;;22.30;61.10;;;;;;5012847;28;20212;-57
2023/08/03 01:43:32;;;;;;;2.33;1.10;;;22.30;61.10;;;;;;5013331;28;20189;-57
2023/08/03 01:45:59;;;;;;;2.97;1.30;;;22.30;61.10;;;;;;5012894;28;20631;-56
2023/08/03 01:48:27;;;;;;;2.00;1.00;;;22.20;61.00;;;;;;4995283;28;20197;-56
2023/08/03 01:50:54;;;;;;;2.22;1.30;;;22.30;61.20;;;;;;5012804;28;20217;-56
2023/08/03 01:53:21;;;;;;;1.23;1.10;;;22.30;61.20;;;;;;4995185;28;20220;-56
2023/08/03 01:55:49;;;;;;;1.35;1.17;;;22.20;61.10;;;;;;4995204;28;20209;-56
2023/08/03 01:58:17;;;;;;;2.40;1.48;;;22.20;61.10;;;;;;5012789;28;20192;-57
2023/08/03 02:00:44;;;;;;;1.20;1.10;;;22.20;61.20;;;;;;4994930;28;20543;-57
2023/08/03 02:03:11;;;;;;;1.73;1.13;;;22.20;61.20;;;;;;5012758;28;20189;-56
2023/08/03 02:05:38;;;;;;;2.15;1.13;;;22.20;61.20;;;;;;4995141;28;20228;-56
2023/08/03 02:08:05;;;;;;;2.83;1.30;;;22.20;61.10;;;;;;4995120;28;20221;-56
2023/08/03 02:10:32;;;;;;;1.98;1.23;;;22.20;61.10;;;;;;4996547;28;20216;-56
2023/08/03 02:12:59;;;;;;;2.47;1.40;;;22.20;61.10;;;;;;4998708;28;20217;-56
2023/08/03 02:15:27;;;;;;;2.08;1.20;;;22.20;61.10;;;;;;5016618;28;20220;-56
2023/08/03 02:17:54;;;;;;;2.28;1.35;;;22.20;61.10;;;;;;4998710;28;20193;-56
2023/08/03 02:20:21;;;;;;;2.38;1.15;;;22.20;61.10;;;;;;4998718;28;20213;-56
2023/08/03 02:22:48;;;;;;;2.20;1.50;;;22.20;61.10;;;;;;4998586;28;20553;-56
2023/08/03 02:25:15;;;;;;;3.33;1.33;;;22.20;61.10;;;;;;4999343;28;20216;-56
2023/08/03 02:27:42;;;;;;;3.55;1.35;;;22.20;61.00;;;;;;4998452;28;20201;-56
2023/08/03 02:30:10;;;;;;;1.92;1.23;;;22.10;61.00;;;;;;5015995;28;20689;-56
2023/08/03 02:32:41;;;;;;;1.75;1.30;;;22.10;61.00;;;;;;4998214;28;20215;-56
2023/08/03 02:35:10;;;;;;;1.77;1.40;;;22.10;60.90;;;;;;4998276;28;20197;-56
2023/08/03 02:37:38;;;;;;;2.30;1.48;;;22.10;61.00;;;;;;4998293;28;20243;-56
2023/08/03 02:40:12;;;;;;;1.70;1.30;;;22.10;61.00;;;;;;4998351;28;20247;-56
2023/08/03 02:42:39;;;;;;;2.28;1.23;;;22.10;61.00;;;;;;4998302;28;20673;-56
2023/08/03 02:45:10;;;;;;;2.10;1.38;;;22.10;61.00;;;;;;4998759;28;20204;-56
2023/08/03 02:47:37;;;;;;;2.25;1.30;;;22.10;61.00;;;;;;4998150;28;20201;-56
2023/08/03 02:50:07;;;;;;;2.50;1.30;;;22.10;61.00;;;;;;4998702;28;20192;-56
2023/08/03 02:52:35;;;;;;;1.90;1.35;;;22.10;61.00;;;;;;4997979;28;20209;-56
2023/08/03 02:55:02;;;;;;;1.48;1.10;;;22.10;61.00;;;;;;4998099;28;20196;-56
2023/08/03 02:57:29;;;;;;;1.98;1.20;;;22.10;60.80;;;;;;4998049;28;20284;-56
2023/08/03 02:59:56;;;;;;;1.88;1.45;;;22.10;60.80;;;;;;4998876;28;20264;-56
2023/08/03 03:02:23;;;;;;;2.20;1.08;;;22.00;60.70;;;;;;4997997;28;20287;-56
2023/08/03 03:04:52;;;;;;;2.38;1.38;;;22.00;60.70;;;;;;4998768;28;20216;-58
2023/08/03 03:07:21;;;;;;;2.38;1.30;;;22.00;60.70;;;;;;4998038;28;20250;-56
2023/08/03 03:09:52;;;;;;;2.45;1.50;;;22.00;60.60;;;;;;4998107;28;20215;-56
2023/08/03 03:12:19;;;;;;;1.90;1.08;;;22.00;60.60;;;;;;4998144;28;20247;-56
2023/08/03 03:14:50;;;;;;;2.38;1.38;;;22.10;60.60;;;;;;4998911;28;20197;-56
2023/08/03 03:17:17;;;;;;;3.08;1.60;;;22.10;60.50;;;;;;5015948;28;20193;-56
2023/08/03 03:19:47;;;;;;;2.88;1.40;;;22.10;60.30;;;;;;4998534;28;20312;-56
2023/08/03 03:22:15;;;;;;;3.97;1.50;;;22.20;60.10;;;;;;4997406;28;20197;-56
2023/08/03 03:24:43;;;;;;;3.58;1.50;;;22.20;59.90;;;;;;5015453;28;20224;-56
2023/08/03 03:27:10;;;;;;;2.75;1.50;;;22.20;59.70;;;;;;4997635;28;20700;-56
2023/08/03 03:29:46;;;;;;;3.45;1.45;;;22.30;59.60;;;;;;4998084;28;20192;-56
2023/08/03 03:32:14;;;;;;;3.55;1.40;;;22.30;59.40;;;;;;4997981;28;20554;-56
2023/08/03 03:34:41;;;;;;;2.42;1.40;;;22.40;59.30;;;;;;4997366;28;20225;-56
2023/08/03 03:37:10;;;;;;;3.10;1.70;;;22.40;59.30;;;;;;4997179;28;20227;-56
2023/08/03 03:39:38;;;;;;;2.30;1.27;;;22.40;59.10;;;;;;4997599;28;20197;-55
2023/08/03 03:42:11;;;;;;;2.58;1.30;;;22.40;59.00;;;;;;4997528;28;20193;-56
2023/08/03 03:44:39;;;;;;;3.17;1.50;;;22.50;58.90;;;;;;4998039;28;20193;-56
2023/08/03 03:47:06;;;;;;;1.98;1.23;;;22.50;58.90;;;;;;5015092;28;20276;-56
2023/08/03 03:49:39;;;;;;;2.75;1.55;;;22.50;58.70;;;;;;4997157;28;20250;-56
2023/08/03 03:52:07;;;;;;;2.42;1.35;;;22.50;58.60;;;;;;4997201;28;20225;-56
2023/08/03 03:54:36;;;;;;;3.15;1.58;;;22.60;58.60;;;;;;4996922;28;20208;-56
2023/08/03 03:57:06;;;;;;;2.53;1.35;;;22.60;58.40;;;;;;4996888;28;20207;-56
2023/08/03 03:59:36;;;;;;;2.88;1.52;;;22.60;58.90;;;;;;4996811;28;20265;-56
2023/08/03 04:02:03;;;;;;;1.73;1.13;;;22.60;58.30;;;;;;4996792;28;20227;-55
2023/08/03 04:04:30;;;;;;;3.35;1.40;;;22.60;58.30;;;;;;4996791;28;20653;-56
2023/08/03 04:06:57;;;;;;;1.52;1.27;;;22.60;58.20;;;;;;5014545;28;20654;-56
2023/08/03 04:09:25;;;;;;;1.80;1.20;;;22.60;58.80;;;;;;4996613;28;20665;-56
2023/08/03 04:11:52;;;;;;;1.92;1.30;;;22.60;58.20;;;;;;4996557;28;20228;-55
2023/08/03 04:14:19;;;;;;;3.85;1.38;;;22.60;58.10;;;;;;5014245;28;20283;-56
2023/08/03 04:16:47;;;;;;;2.72;1.63;;;22.60;58.20;;;;;;4996519;28;20658;-55
2023/08/03 04:19:15;;;;;;;2.85;1.58;;;22.60;58.20;;;;;;4996538;28;20200;-56
2023/08/03 04:21:42;;;;;;;3.53;1.70;;;22.60;58.20;;;;;;4996348;28;20224;-55
2023/08/03 04:24:10;;;;;;;2.70;1.30;;;22.60;58.10;;;;;;4996334;28;20288;-56
2023/08/03 04:26:37;;;;;;;3.53;1.50;;;22.60;58.20;;;;;;4996312;28;20223;-56
2023/08/03 04:29:08;;;;;;;2.75;1.30;;;22.60;58.20;;;;;;4996324;28;20181;-55
2023/08/03 04:31:36;;;;;;;3.20;1.50;;;22.50;58.30;;;;;;4996113;28;20217;-55
2023/08/03 04:34:06;;;;;;;2.70;1.63;;;22.50;58.20;;;;;;4996131;28;20282;-55
2023/08/03 04:36:33;;;;;;;3.60;1.48;;;22.50;58.30;;;;;;4996194;28;20211;-56
2023/08/03 04:39:00;;;;;;;3.13;1.58;;;22.50;58.30;;;;;;4996091;28;20284;-56
2023/08/03 04:41:29;;;;;;;3.28;1.40;;;22.50;58.20;;;;;;4995946;28;20244;-56
2023/08/03 04:43:57;;;;;;;2.60;1.50;;;22.50;58.20;;;;;;4996239;28;20207;-55
2023/08/03 04:46:24;;;;;;;3.78;1.48;;;22.50;58.30;;;;;;5013683;28;20227;-55
2023/08/03 04:48:54;;;;;;;2.85;1.40;;;22.50;58.40;;;;;;4995928;28;20201;-56
2023/08/03 04:51:23;;;;;;;2.60;1.20;;;22.50;58.30;;;;;;4996219;28;20224;-55
2023/08/03 04:53:51;;;;;;;2.42;1.20;;;22.50;58.30;;;;;;4995889;28;20212;-55
2023/08/03 04:56:20;;;;;;;2.50;1.25;;;22.50;58.70;;;;;;4995808;28;20673;-55
2023/08/03 04:58:47;;;;;;;2.13;1.38;;;22.60;57.70;;;;;;4995836;28;20288;-56
2023/08/03 05:01:14;;;;;;;3.22;1.23;;;22.70;57.40;;;;;;5013213;28;20224;-56
2023/08/03 05:03:41;;;;;;;2.45;1.40;;;22.90;57.00;;;;;;4995782;28;20192;-55
2023/08/03 05:06:08;;;;;;;3.78;1.42;;;23.10;56.80;;;;;;4995694;28;20288;-55
2023/08/03 05:08:36;;;;;;;1.50;1.15;;;23.20;56.50;;;;;;4995793;28;20196;-56
2023/08/03 05:11:03;;;;;;;2.75;1.33;;;23.30;56.20;;;;;;4995540;28;20220;-56
2023/08/03 05:13:35;;;;;;;2.25;1.17;;;23.40;56.00;;;;;;5013135;28;20699;-56
2023/08/03 05:16:02;;;;;;;2.83;1.40;;;23.50;55.70;;;;;;4995918;28;20196;-55
2023/08/03 05:18:29;;;;;;;2.60;1.40;;;23.60;55.30;;;;;;4995520;28;20204;-56
2023/08/03 05:20:56;;;;;;;1.58;1.23;;;23.70;55.00;;;;;;5013509;28;20212;-55
2023/08/03 05:23:23;;;;;;;2.03;1.20;;;23.90;54.80;;;;;;4995606;28;20571;-56
2023/08/03 05:25:55;;;;;;;2.05;1.17;;;24.00;54.60;;;;;;4995510;28;20216;-55
2023/08/03 05:28:22;;;;;;;1.75;1.23;;;24.00;54.40;;;;;;4995648;28;20554;-56
2023/08/03 05:30:50;;;;;;;2.45;1.40;;;24.00;54.40;;;;;;5012988;28;20222;-56
2023/08/03 05:33:17;;;;;;;1.67;1.02;;;24.00;54.30;;;;;;5012891;28;20213;-56
2023/08/03 05:35:44;;;;;;;3.03;1.33;;;24.00;54.40;;;;;;5012982;28;20189;-55
2023/08/03 05:38:11;;;;;;;1.60;1.05;;;23.90;54.60;;;;;;5013316;28;20584;-56
2023/08/03 05:40:40;;;;;;;1.60;1.00;;;23.80;54.80;;;;;;5012931;28;20209;-55
2023/08/03 05:43:10;;;;;;;2.50;1.15;;;23.80;55.00;;;;;;4995417;28;20239;-55
2023/08/03 05:45:40;;;;;;;1.98;1.08;;;23.70;55.00;;;;;;5014854;28;20180;-55
2023/08/03 05:48:12;;;;;;;2.20;1.27;;;23.70;55.10;;;;;;5016945;28;20201;-55
2023/08/03 05:50:41;;;;;;;2.58;1.13;;;23.70;55.00;;;;;;4999125;28;20227;-56
2023/08/03 05:53:09;;;;;;;2.03;0.90;;;23.70;55.10;;;;;;5016674;28;20208;-55
2023/08/03 05:55:36;;;;;;;1.05;0.70;;;23.70;55.00;;;;;;5017191;28;20197;-56
2023/08/03 05:58:03;;;;;;;4.18;1.25;;;23.70;54.90;;;;;;5016621;28;20239;-55
2023/08/03 06:00:31;;;;;;;2.90;1.10;;;23.70;54.70;;;;;;4998953;28;20228;-56
2023/08/03 06:02:59;;;;;;;1.60;1.27;;;23.80;54.70;;;;;;5016650;28;20173;-55
2023/08/03 06:05:40;;;;;;;1.75;1.00;;;23.80;54.70;;;;;;4998871;28;20550;-55
2023/08/03 06:08:11;;;;;;;2.00;1.10;;;23.80;54.40;;;;;;4998990;28;20197;-55
2023/08/03 06:10:38;;;;;;;1.92;1.00;;;24.00;54.30;;;;;;4998882;28;20225;-56
2023/08/03 06:13:05;;;;;;;2.15;1.10;;;24.10;53.80;;;;;;5016276;28;20759;-56
2023/08/03 06:15:33;;;;;;;2.65;1.40;;;24.30;53.60;;;;;;4998726;28;20207;-56
2023/08/03 06:18:02;;;;;;;2.80;1.02;;;24.40;53.00;;;;;;5016663;28;20555;-55
2023/08/03 06:23:04;;;;;;;2.60;1.20;;;24.80;52.40;;;;;;4994411;28;20232;-64
2023/08/03 06:25:31;;;;;;;1.80;1.00;;;24.90;52.10;;;;;;4979397;28;20341;-64
2023/08/03 06:27:59;;;;;;;2.42;1.20;;;24.90;52.00;;;;;;4979244;28;20205;-65
2023/08/03 06:30:26;;;;;;;1.20;1.10;;;25.00;51.90;;;;;;4979532;28;20225;-65
2023/08/03 06:32:55;;;;;;;1.58;1.00;;;25.10;51.60;;;;;;4979322;28;20305;-66
2023/08/03 06:35:27;;;;;;;2.90;1.30;;;25.20;51.40;;;;;;4996909;28;20201;-65
2023/08/03 06:37:55;;;;;;;1.95;1.23;;;25.30;51.20;;;;;;4996429;28;20209;-65
2023/08/03 06:40:21;;;;;;;1.98;1.10;;;25.30;51.00;;;;;;4996639;28;20206;-65
2023/08/03 06:42:49;;;;;;;2.22;1.15;;;25.40;50.70;;;;;;4979495;28;20388;-66
2023/08/03 06:45:16;;;;;;;1.40;0.98;;;25.50;50.40;;;;;;4979529;28;20199;-65
2023/08/03 06:47:43;;;;;;;1.88;1.20;;;25.60;50.10;;;;;;4997154;28;20196;-64
2023/08/03 06:50:12;;;;;;;2.38;0.95;;;25.70;49.80;;;;;;4980340;28;20202;-65
2023/08/03 06:52:39;;;;;;;1.25;0.80;;;25.90;49.50;;;;;;4996826;28;20268;-64
2023/08/03 06:55:06;;;;;;;1.67;0.98;;;26.00;49.10;;;;;;4996716;28;20227;-65
2023/08/03 06:57:33;;;;;;;2.38;1.15;;;26.10;48.90;;;;;;4995485;28;20188;-65
2023/08/03 07:00:00;;;;;;;2.13;0.98;;;26.20;48.60;;;;;;4996183;28;20202;-64
2023/08/03 07:02:28;;;;;;;2.03;1.02;;;26.30;48.30;;;;;;4995160;28;20291;-64
2023/08/03 07:04:55;;;;;;;1.85;1.10;;;26.40;48.00;;;;;;4978641;28;20694;-64
2023/08/03 07:07:23;;;;;;;1.88;1.10;;;26.40;47.50;;;;;;4996186;28;20615;-64
2023/08/03 07:09:51;;;;;;;2.03;1.00;;;26.60;47.40;;;;;;4978328;28;20554;-64
2023/08/03 07:12:18;;;;;;;2.53;0.90;;;26.60;47.20;;;;;;4995904;28;20325;-65
2023/08/03 07:14:44;;;;;;;1.73;0.98;;;26.60;46.90;;;;;;4978337;28;20220;-65
2023/08/03 07:17:11;;;;;;;2.00;0.80;;;26.70;46.70;;;;;;4978893;28;20201;-65
2023/08/03 07:19:39;;;;;;;2.38;1.08;;;26.70;46.60;;;;;;4994220;28;20663;-64
2023/08/03 07:22:06;;;;;;;1.13;1.00;;;26.70;46.60;;;;;;4977972;28;20304;-64
2023/08/03 07:24:35;;;;;;;3.22;1.23;;;26.80;46.30;;;;;;4996079;28;20181;-65
2023/08/03 07:27:02;;;;;;;1.23;0.93;;;26.80;46.10;;;;;;4977994;28;20207;-65
2023/08/03 07:29:29;;;;;;;1.92;1.02;;;26.90;46.00;;;;;;4994071;28;20193;-65
2023/08/03 07:31:56;;;;;;;1.48;1.02;;;26.90;45.80;;;;;;4977563;28;20316;-64
2023/08/03 07:34:23;;;;;;;1.65;1.00;;;27.00;45.80;;;;;;4995373;28;20295;-65
2023/08/03 07:36:52;;;;;;;2.35;1.20;;;27.10;45.60;;;;;;4977831;28;20251;-64
2023/08/03 07:39:19;;;;;;;1.23;0.88;;;27.10;45.30;;;;;;4995041;28;20283;-66
2023/08/03 07:41:47;;;;;;;1.33;0.95;;;27.20;45.10;;;;;;4994846;28;20199;-65
2023/08/03 07:44:15;;;;;;;1.40;0.88;;;27.20;44.90;;;;;;4995107;28;20208;-64
2023/08/03 07:46:43;;;;;;;1.85;1.30;;;27.30;44.40;;;;;;4977327;28;20201;-64
2023/08/03 07:49:09;;;;;;;0.93;0.85;;;27.40;44.50;;;;;;4977435;28;20201;-64
2023/08/03 07:51:36;;;;;;;1.83;0.90;;;27.40;44.20;;;;;;4995130;28;20194;-65
2023/08/03 07:54:04;;;;;;;1.55;0.90;;;27.40;43.90;;;;;;4996584;28;20276;-64
2023/08/03 07:56:31;;;;;;;3.03;0.80;;;27.50;43.90;;;;;;4995460;28;20193;-65
2023/08/03 07:59:00;;;;;;;1.92;0.98;;;27.60;44.10;;;;;;4994945;28;20215;-65
2023/08/03 08:01:28;;;;;;;1.10;0.80;;;27.60;43.80;;;;;;4977326;28;20303;-64
2023/08/03 08:03:54;;;;;;;0.85;0.70;;;27.60;43.70;;;;;;4994535;28;20205;-65
2023/08/03 08:06:21;;;;;;;2.75;1.10;;;27.70;43.70;;;;;;4994460;28;20197;-66
2023/08/03 08:08:49;;;;;;;1.35;0.70;;;27.70;43.40;;;;;;4994417;28;20659;-65
2023/08/03 08:11:17;;;;;;;1.48;1.00;;;27.80;43.20;;;;;;4977095;28;20207;-65
2023/08/03 08:13:44;;;;;;;1.55;1.10;;;27.90;43.20;;;;;;4977049;28;20687;-66
2023/08/03 08:16:13;;;;;;;1.33;0.90;;;27.80;42.90;;;;;;4976955;28;20226;-66
2023/08/03 08:18:40;;;;;;;1.55;0.90;;;27.80;43.50;;;;;;4976920;28;20193;-65
2023/08/03 08:21:08;;;;;;;1.77;0.90;;;27.60;43.30;;;;;;4976750;28;20208;-65
2023/08/03 08:23:35;;;;;;;1.90;1.10;;;27.50;43.60;;;;;;4994156;28;20213;-65
2023/08/03 08:26:03;;;;;;;1.88;0.90;;;27.40;43.70;;;;;;4976848;28;20204;-65
2023/08/03 08:28:29;;;;;;;1.17;0.73;;;27.30;44.10;;;;;;4976726;28;20189;-65
2023/08/03 08:30:57;;;;;;;1.83;1.15;;;27.20;44.40;;;;;;4994245;28;20197;-65
2023/08/03 08:33:25;;;;;;;1.10;0.90;;;27.10;44.80;;;;;;4993954;28;20208;-64
2023/08/03 08:35:52;;;;;;;1.45;0.90;;;26.90;45.00;;;;;;4994234;28;20215;-64
2023/08/03 08:38:19;;;;;;;1.45;0.93;;;26.80;45.10;;;;;;4976516;28;20205;-65
2023/08/03 08:40:46;;;;;;;1.50;0.98;;;26.70;45.30;;;;;;4994085;28;20185;-65
2023/08/03 08:43:13;;;;;;;2.25;1.08;;;26.70;45.70;;;;;;4976455;28;20227;-65
2023/08/03 08:45:40;;;;;;;1.30;0.88;;;26.60;45.80;;;;;;4993946;28;20189;-65
2023/08/03 08:48:07;;;;;;;2.78;1.00;;;26.60;46.00;;;;;;4992775;28;20207;-65
2023/08/03 08:50:35;;;;;;;1.58;1.10;;;26.50;46.00;;;;;;4993857;28;20276;-65
2023/08/03 08:53:02;;;;;;;1.23;0.88;;;26.40;46.10;;;;;;4976263;28;20228;-64
2023/08/03 08:55:30;;;;;;;1.15;0.80;;;26.40;46.10;;;;;;4993798;28;20611;-65
2023/08/03 08:57:58;;;;;;;1.67;1.00;;;26.40;46.10;;;;;;4976186;28;20203;-64
2023/08/03 09:00:26;;;;;;;1.23;0.70;;;26.40;46.30;;;;;;4993879;28;20196;-65
2023/08/03 09:02:55;;;;;;;0.85;0.77;;;26.30;46.40;;;;;;4994016;28;20212;-65
2023/08/03 09:05:22;;;;;;;2.65;0.90;;;26.30;46.50;;;;;;4976331;28;20197;-66
2023/08/03 09:08:01;;;;;;;1.73;0.80;;;26.30;46.60;;;;;;4993836;28;20189;-66
2023/08/03 09:10:28;;;;;;;2.67;1.00;;;26.30;46.60;;;;;;4993742;28;20193;-65
2023/08/03 09:12:55;;;;;;;1.73;0.90;;;26.30;46.50;;;;;;4976048;28;20243;-65
2023/08/03 09:15:36;;;;;;;1.50;0.82;;;26.20;46.50;;;;;;4976094;28;20220;-64
2023/08/03 09:18:04;;;;;;;2.22;0.75;;;26.20;46.60;;;;;;4993688;28;20200;-65
2023/08/03 09:20:31;;;;;;;1.58;0.80;;;26.20;46.70;;;;;;4975462;28;20220;-65
2023/08/03 09:23:00;;;;;;;1.25;0.85;;;26.20;46.70;;;;;;4975814;28;20660;-65
2023/08/03 09:25:27;;;;;;;1.58;0.90;;;26.20;46.90;;;;;;4993481;28;20279;-65
2023/08/03 09:27:55;;;;;;;1.20;0.77;;;26.10;46.80;;;;;;4975927;28;20204;-64
2023/08/03 09:30:24;;;;;;;1.15;0.75;;;26.10;47.00;;;;;;4993794;28;20512;-65
2023/08/03 09:32:51;;;;;;;1.70;1.00;;;26.10;47.50;;;;;;4993292;28;20212;-65
2023/08/03 09:35:19;;;;;;;1.63;0.75;;;26.20;46.90;;;;;;4975993;28;20248;-65
2023/08/03 09:37:46;;;;;;;1.38;0.80;;;26.20;46.90;;;;;;4975926;28;20196;-65
2023/08/03 09:40:17;;;;;;;1.30;0.85;;;26.20;46.70;;;;;;4976157;28;20201;-65
2023/08/03 09:42:44;;;;;;;0.93;0.88;;;26.20;46.70;;;;;;4993790;28;20714;-64
2023/08/03 09:45:11;;;;;;;1.63;0.95;;;26.20;46.80;;;;;;4993632;28;20244;-65
2023/08/03 09:47:39;;;;;;;1.45;0.70;;;26.20;46.70;;;;;;4993626;28;20192;-65
2023/08/03 09:50:06;;;;;;;1.33;0.70;;;26.20;46.70;;;;;;4993992;28;20199;-64
2023/08/03 09:52:45;;;;;;;1.15;0.80;;;26.20;46.70;;;;;;4993550;28;20247;-65
2023/08/03 09:55:19;;;;;;;1.27;0.90;;;26.10;46.80;;;;;;4994095;28;20201;-66
2023/08/03 09:57:50;;;;;;;0.60;0.50;;;26.20;46.90;;;;;;4979788;28;20292;-65
2023/08/03 10:00:17;;;;;;;1.55;0.80;;;26.10;46.80;;;;;;4976858;28;20293;-65
2023/08/03 10:02:44;;;;;;;1.35;0.90;;;26.10;46.80;;;;;;4976501;28;20769;-65
2023/08/03 10:05:12;;;;;;;1.85;0.82;;;26.00;47.00;;;;;;4976261;28;20193;-65
2023/08/03 10:07:44;;;;;;;1.05;0.70;;;26.00;47.10;;;;;;4993599;28;20189;-65
2023/08/03 10:10:11;;;;;;;0.98;0.73;;;26.00;47.20;;;;;;4993885;28;20174;-65
2023/08/03 10:12:41;;;;;;;1.15;0.80;;;25.90;47.20;;;;;;4991968;28;20697;-64
2023/08/03 10:15:09;;;;;;;1.40;0.75;;;25.90;47.30;;;;;;4993226;28;20205;-64
2023/08/03 10:17:36;;;;;;;1.08;0.80;;;25.90;47.30;;;;;;4993243;28;20196;-65
2023/08/03 10:20:04;;;;;;;1.38;1.10;;;25.90;47.30;;;;;;4975600;28;20550;-64
2023/08/03 10:22:31;;;;;;;1.95;0.90;;;25.80;47.50;;;;;;4993015;28;20737;-65
2023/08/03 10:25:16;;;;;;;0.73;0.68;;;25.80;47.40;;;;;;4993038;28;20601;-64
2023/08/03 10:27:59;;;;;;;0.77;0.45;;;25.80;47.50;;;;;;4993025;28;20232;-64
2023/08/03 10:30:26;;;;;;;1.02;0.80;;;25.80;47.50;;;;;;4992300;28;20212;-64
2023/08/03 10:32:53;;;;;;;1.65;0.68;;;25.80;47.40;;;;;;4978678;28;20244;-64
2023/08/03 10:35:38;;;;;;;1.10;0.77;;;25.80;47.40;;;;;;4978802;28;20243;-64
2023/08/03 10:38:13;;;;;;;2.35;0.80;;;25.80;47.40;;;;;;4996618;28;20600;-64
2023/08/03 10:40:40;;;;;;;0.98;0.63;;;25.80;47.40;;;;;;4979156;28;20198;-64
2023/08/03 10:43:11;;;;;;;0.60;0.60;;;25.70;47.50;;;;;;4996328;28;20220;-65
2023/08/03 10:45:40;;;;;;;0.68;0.57;;;25.70;47.60;;;;;;4994953;28;20216;-65
2023/08/03 10:48:28;;;;;;;1.23;0.75;;;25.70;47.60;;;;;;4978897;28;20208;-65
2023/08/03 10:50:59;;;;;;;0.45;0.45;;;25.70;47.80;;;;;;4996583;28;20195;-65
2023/08/03 10:53:26;;;;;;;1.50;0.80;;;25.60;47.60;;;;;;4978518;28;20221;-64
2023/08/03 10:56:03;;;;;;;1.10;0.70;;;25.60;47.70;;;;;;4978467;28;20224;-64
2023/08/03 10:58:31;;;;;;;0.93;0.68;;;25.60;47.90;;;;;;4996369;28;20181;-65
2023/08/03 11:00:58;;;;;;;1.02;0.70;;;25.60;47.90;;;;;;4978444;28;20197;-65
2023/08/03 11:03:36;;;;;;;1.42;0.73;;;25.60;48.00;;;;;;4978441;28;20283;-64
2023/08/03 11:06:04;;;;;;;1.52;0.90;;;25.50;48.00;;;;;;4978800;28;20197;-65
2023/08/03 11:08:31;;;;;;;1.10;0.63;;;25.60;48.20;;;;;;4978370;28;20573;-64
2023/08/03 11:10:58;;;;;;;1.77;0.57;;;25.50;48.10;;;;;;4995788;28;20189;-65
2023/08/03 11:13:25;;;;;;;1.33;0.75;;;25.50;48.10;;;;;;4994470;28;20308;-64
2023/08/03 11:15:54;;;;;;;0.77;0.60;;;25.50;48.20;;;;;;4995872;28;20212;-64
2023/08/03 11:18:22;;;;;;;0.98;0.63;;;25.50;48.20;;;;;;4994176;28;20197;-65
2023/08/03 11:20:49;;;;;;;0.52;0.50;;;25.40;48.20;;;;;;4977942;28;20651;-64
2023/08/03 11:23:16;;;;;;;0.63;0.63;;;25.50;48.40;;;;;;4995320;28;20213;-64
2023/08/03 11:25:43;;;;;;;0.73;0.60;;;25.40;48.50;;;;;;4995753;28;20196;-65
2023/08/03 11:28:11;;;;;;;0.65;0.50;;;25.40;48.50;;;;;;4978114;28;20192;-65
2023/08/03 11:30:44;;;;;;;0.68;0.57;;;25.40;48.60;;;;;;4977886;28;20208;-65
2023/08/03 11:33:15;;;;;;;1.48;0.60;;;25.40;48.30;;;;;;4977798;28;20698;-65
2023/08/03 11:35:43;;;;;;;1.40;0.73;;;25.50;48.60;;;;;;4995302;28;20205;-65
2023/08/03 11:38:10;;;;;;;1.02;0.70;;;25.50;48.50;;;;;;4995584;28;20201;-65
2023/08/03 11:40:38;;;;;;;0.75;0.75;;;25.50;48.50;;;;;;4995224;28;20208;-65
2023/08/03 11:43:05;;;;;;;0.93;0.73;;;25.50;48.20;;;;;;4977234;28;20223;-65
2023/08/03 11:45:34;;;;;;;0.98;0.52;;;25.50;48.20;;;;;;4995518;28;20189;-65
2023/08/03 11:48:01;;;;;;;0.80;0.45;;;25.50;48.20;;;;;;4994974;28;20193;-65
2023/08/03 11:50:30;;;;;;;0.50;0.50;;;25.50;48.30;;;;;;4993738;28;20355;-65
2023/08/03 11:53:00;;;;;;;1.63;0.85;;;25.50;48.20;;;;;;4995200;28;20699;-65
2023/08/03 11:55:28;;;;;;;0.40;0.30;;;25.50;48.20;;;;;;4994723;28;20683;-65
2023/08/03 11:58:10;;;;;;;0.70;0.60;;;25.50;48.10;;;;;;4995135;28;20272;-64
2023/08/03 12:00:39;;;;;;;1.02;0.70;;;25.60;48.10;;;;;;4995121;28;20212;-64
2023/08/03 12:03:06;;;;;;;0.80;0.65;;;25.60;48.10;;;;;;4977271;28;20217;-64
2023/08/03 12:05:51;;;;;;;0.73;0.40;;;25.60;47.90;;;;;;4994911;28;20189;-64
2023/08/03 12:08:19;;;;;;;0.57;0.55;;;25.60;48.00;;;;;;4993502;28;20188;-64
2023/08/03 12:10:57;;;;;;;0.50;0.50;;;25.60;47.90;;;;;;4993402;28;20193;-64
2023/08/03 12:13:24;;;;;;;2.45;0.68;;;25.60;47.80;;;;;;4993340;28;20249;-64
2023/08/03 12:15:51;;;;;;;0.88;0.63;;;25.70;47.90;;;;;;4994526;28;20208;-65
2023/08/03 12:18:20;;;;;;;1.23;0.88;;;25.70;47.80;;;;;;4994303;28;20283;-65
2023/08/03 12:23:29;;;;;;;1.58;0.80;;;25.70;47.80;;;;;;5007998;28;20220;-78
2023/08/03 12:25:57;;;;;;;0.50;0.50;;;25.70;47.60;;;;;;4976709;28;20201;-78
2023/08/03 12:28:24;;;;;;;0.82;0.68;;;25.70;47.60;;;;;;4959189;28;20575;-78
2023/08/03 12:30:51;;;;;;;1.17;0.55;;;25.70;47.50;;;;;;4972020;28;20218;-78
2023/08/03 12:33:19;;;;;;;0.65;0.45;;;25.70;47.40;;;;;;4957722;29;20198;-78
2023/08/03 12:35:46;;;;;;;0.80;0.40;;;25.70;47.30;;;;;;4957099;29;20229;-78
2023/08/03 12:38:13;;;;;;;0.82;0.63;;;25.70;47.30;;;;;;4956584;29;20583;-78
2023/08/03 12:40:41;;;;;;;0.60;0.50;;;25.80;47.50;;;;;;4959161;28;20245;-78
2023/08/03 12:43:09;;;;;;;0.75;0.50;;;25.70;47.50;;;;;;4955932;29;20253;-78
2023/08/03 12:45:36;;;;;;;1.17;0.60;;;25.70;47.40;;;;;;4955419;29;20649;-78
2023/08/03 12:48:03;;;;;;;0.60;0.50;;;25.70;47.60;;;;;;4955055;29;20269;-78
2023/08/03 12:50:30;;;;;;;0.80;0.65;;;25.70;47.70;;;;;;4955366;28;20222;-78
2023/08/03 12:52:57;;;;;;;1.00;0.60;;;25.70;47.70;;;;;;4955368;29;20210;-78
2023/08/03 12:55:24;;;;;;;1.42;0.55;;;25.70;47.60;;;;;;4954382;28;20224;-78
2023/08/03 12:57:52;;;;;;;2.13;0.75;;;25.70;47.60;;;;;;4954820;29;20194;-79